Timeline UpdatesTrip UpdatesNews PostsPvt PostsTravel TipsAdmin PostsConv PostsFollowed PostsChat RequestsBlog PostsPNR Posts

Disclaimer
Search
 
 
Tue Sep 2, 2014 22:11:46 ISTHomeTrainsΣChainsAtlasPNRForumGalleryNewsFAQTripsMembersLoginFeedback
No Recent News for this Train
Other Trains in the News **new
Latest...
One Sleeper and unreserved coach for Mumbai is attached from Nandurbar. These coaches are attached to 59442 Ahmedabad Mumbai passenger at Surat.
Mon Apr 18, 2011 (09:18PM)
⇐ Return Journey: Train# 59441-Slip

59076-Slip/Bhusaval -Mumbai Passenger Slip(Via Surat)

NO Time-Table Change.
Jul 01 2013 (11:06PM)
Change Departure Station:
Change Arrival Station:
Post a Train Travel TipPost a Train Travel Tip **new
Post a Comment/Question/Picture/VideoPost a Comment/Question/Picture/Video
Pantry/Catering
???
Loco/Rake Reversals
ST/Surat (4);
RSA - Rake Sharing
Rake/Coach Composition
Loco
News    PNR    Forum    Time-Table    Availability    Fare Chart    Map    Arr/Dep History    Trips    Gallery    ΣChains    X/O    Timeline    
Travel Time: 19h 50m    71 halts    Distance: 598 km    Avg Speed: 30 km/hr
Type: Passenger
Zone: WR/Western
Departs @ 08:45
Platform# ???
SMTWTFS
Bhusaval Junction/BSL 
Arrives @ 04:35 +1 night
Platform# 5
SMTWTFS
Mumbai Central/BCT 

71 halts. 104 intermediate Stations between Bhusaval Junction and Mumbai Central

Show ALL intermediate Stations  

#CodeStation NameX/OArrivesAvgDepartsAvgHaltPFDay#KmSpeedElevZoneAddress
1BSL»Bhusaval Junction (8)»  -08:45---10.058208mCRBhusaval 425201, Maharashtra
2BDIBhadli (2)  08:58-09:00-2m--112.630211mCRBhadli, Maharashtra
3JLJalgaon Junction (4)  09:23-09:25-2m2124.137213mCRJalgaon 425001, Maharashtra
4PLDPaldhi (2)  09:43-09:45-2m--135.253208mWRPaldhi, Maharashtra
5CHLKChavalkhedeX  09:58-10:00-2m--146.727196mWRState Highway 185, Maharashtra
6DXGDharangaon (2)  10:16-10:18-2m--153.857217mWRDharangaon, Maharashtra
7BHNEBhone (2)  10:26-10:28-2m--161.550196mWRState Highway 185, Maharashtra
8TKHETakarkhede (1)  10:35-10:37-2m1167.343203mWRState Highway 6, Maharashtra
9ANAmalner (2)  10:53-10:55-2m1178.740188mWRAmalner, Maharashtra
10BRTKBhortex  11:07-11:09-2m--186.853180mWRVadhoda, Maharashtra
11PDPPadse  11:18-11:20-2m--194.748181mWRDhule, Maharashtra
12BEWBetavad (1)  11:27-11:29-2m11100.258178mWRState Highway 6, Maharashtra
13NDNNardana (1)  11:36-11:38-2m11107.042184mWRNardana, Maharashtra
14HOLHol (1)  11:45-11:47-2m11112.063185mWRState Highway 6, Maharashtra
15SNKSindkheda (1)X  11:55-11:57-2m11120.343178mWRState Highway 11, Maharashtra
16SNSLSonshelu (1)  12:06-12:08-2m11126.748185mWRMSH1, Maharashtra
17VKHVikhran (1)X  12:14-12:16-2m11131.533176mWRMSH1, Maharashtra
18DDEDondaicha (2)  12:31-12:33-2m11139.755163mWRDondaicha, Maharashtra
19RNLRanala (1)X  12:46-12:48-2m11151.733164mWRState Highway 6, Maharashtra
20TISITisi (1)X  13:05-13:07-2m11161.220185mWRState Highway 7, Maharashtra
21NDBNandurbar (3)X  13:45-14:30-45m--1174.160203mWRNandurbar, Maharashtra
22DWDDhekwad (1)O  14:39-14:41-2m11183.148209mWRState Highway 5, Maharashtra
23KBHKhandbara (1)X  14:58-15:00-2m11196.753198mWRKhandbara, Maharashtra
24KHTGKhatgaon (1)  15:10-15:12-2m11205.553178mWRState Highway 5, Maharashtra
25CPDChinchpada (1)  15:23-15:25-2m11215.348178mWRGangapur, Maharashtra
26KFFKolda (1)X  15:33-15:35-2m11221.639160mWRGangapur, Maharashtra
27NWUNavapur (2)  15:51-15:53-2m--1232.055124mWRNavapur, Gujarat
28BBAIBhadbhunja (1)  16:05-16:07-2m11243.125126mWRGujarat 394375 ?, Gujarat
29LKKDLakkad Kot (1)  16:19-16:21-2m11248.036122mWRGujarat 394375 ?, Gujarat
30USDUkai Songadh (2)  16:33-16:35-2m11255.239139mWRSongadh, Gujarat
31DSDDosvada (1)  16:42-16:44-2m11259.817121mWRNational Highway 6, Gujarat
32KKRDKikakui Road (1)O  16:53-16:55-2m11262.416114mWRGujarat 394650 ?, Gujarat
33VYAVyara (2)  17:38-17:40-2m11273.94390mWRVyara, Gujarat
34LTVLotarva (1)  17:49-17:51-2m11280.44657mWRSankr Main Rd, Gujarat
35KRAIKaher (1)X  17:55-17:57-2m11283.54055mWRKaher, Gujarat
36MIDMadhi (1)  18:05-18:07-2m11288.93245mWRMadhi, Gujarat
37MGRLMangrolla (1)  18:17-18:19-2m11294.23336mWRPipariya, Gujarat
38TBVTimbarva (1)  18:24-18:26-2m11296.93435mWRTimberva, Gujarat
39BIYBardoli (2)  18:38-18:40-2m--1303.72135mWRNear Bardoli Sugar Factory Bardoli, Gujarat
40GGARGangadhara (1)X  18:58-19:00-2m11309.92027mWRKareli, Gujarat
41CHMChalthan (1)  19:29-19:31-2m11319.45023mWRKadodra, Gujarat
42NOLNiyol (1)  19:37-19:39-2m11324.42818mWRSurat, Gujarat
43UDNUdhna Junction (3)XOO  19:53-19:55-2m21330.91616mWRUdhna 394210, Gujarat
44STSurat (4)XO20:10-21:30-80m41334.93819mWRSurat 395001, Gujarat
45BHETBhestan (2)X  21:44-21:46-2m21343.74913mWRSurat, Gujarat
46SCHSachin (3)X  21:53-21:55-2m--1349.46611mWRKansad Road Sachin, Gujarat
47MRLMaroli (3)  22:01-22:03-2m--1356.16315mWRMaroli, Gujarat
48NVSNavsari (3)X  22:11-22:13-2m--1364.54614mWRNavsari, Gujarat
49VDHVedchha (3)X  22:24-22:26-2m--1372.95113mWRNavsari, Gujarat
50ACLAncheli (2)X  22:30-22:32-2m--1376.34620mWRNavsari, Gujarat
51AMLAmalsad (3)  22:37-22:39-2m--1380.15612mWRAmalsad, Gujarat
52BIMBilimora Junction (4)  22:45-22:47-2m--1385.76811mWRBilimora, Gujarat
53DGIDungri (3)X  22:55-22:57-2m--1394.72320mWRNH 8, Gujarat
54BLValsad (3)X  23:20-23:30-10m31403.66415mWRValsad, Gujarat
55PADPardi (3)X  23:40-23:42-2m--1414.36019mWRValsad, Gujarat
56UVDUdvada (3)  23:48-23:50-2m--1420.35218mWRUdvada, Gujarat
57VAPIVapi (3)X  00:01-00:02-1m--2429.94827mWRVapi, Gujarat
58KEBKarambeli (2)X  00:10-00:11-1m--2436.34829mWRNational Highway 8, Gujarat
59BLDBhilad (3)X  00:17-00:19-2m--2441.16933mWRBhilad, Gujarat
60SJNSanjan (3)X  00:29-00:31-2m--2452.75422mWRSanjan, Gujarat
61UBRUmbargam Road (3)X  00:37-00:39-2m--2458.16130mWRUmbergaon, Gujarat
62GVDGholvad (4)X  00:48-00:50-2m--2467.24214mWRGholvad, Maharashtra
63DRDDahanu Road (5)X  01:06-01:08-2m--2478.45712mWRDahanu, Maharashtra
64VGNVangaon (3)X  01:21-01:23-2m--2490.76311mWRDist. Palghar, Maharashtra
65BORBoisar (3)X  01:32-01:34-2m32500.14817mWRBoisar Tel.no-02525-266626, Maharashtra
66PLGPalghar (3)  01:48-01:50-2m--2511.44619mWRPalghar, Maharashtra
67KLVKelve Road (3)  02:01-02:03-2m--2519.84310mWRDist. Palghar, Maharashtra
68SAHSaphale (2)O  02:12-02:14-2m22526.2348mWRDist. Palghar, Maharashtra
69VRVirar (8)  02:43-02:45-2m--2542.5286mWRDist. Palghar, Maharashtra
70BSRVasai Road (7)  03:03-03:05-2m52550.9587mWRVasai 401202, Maharashtra
71BVIMumbai Borivali (8)  03:23-03:25-2m52568.33719mWRMumbai - 400092, Maharashtra
72DDRMumbai Dadar Western (6)  04:03-04:05-2m52592.1126mWRMumbai, Maharashtra
73BCT•Mumbai Central (9)•  04:35--52598.0-3mWRMumbai 400008, Maharashtra
Scroll to Top
Scroll to Bottom